createdAt,value
2019-02-28T00:01:58.731Z,18.90
2019-02-28T00:04:24.878Z,19.47
2019-02-28T00:06:51.026Z,19.57
2019-02-28T00:09:17.175Z,20.53
2019-02-28T00:11:43.331Z,21.20
2019-02-28T00:14:09.475Z,21.07
2019-02-28T00:16:36.334Z,20.07
2019-02-28T00:19:02.651Z,22.40
2019-02-28T00:21:28.791Z,21.20
2019-02-28T00:23:57.338Z,21.90
2019-02-28T00:26:22.983Z,21.00
2019-02-28T00:28:51.884Z,21.63
2019-02-28T00:31:18.023Z,21.57
2019-02-28T00:33:44.162Z,22.40
2019-02-28T00:36:10.300Z,23.50
2019-02-28T00:38:36.846Z,22.43
2019-02-28T00:41:03.226Z,23.13
2019-02-28T00:43:29.375Z,22.33
2019-02-28T00:45:55.513Z,24.63
2019-02-28T00:48:22.400Z,23.80
2019-02-28T00:50:48.591Z,23.53
2019-02-28T00:53:14.726Z,22.43
2019-02-28T00:55:40.878Z,22.63
2019-02-28T00:58:07.019Z,22.30
2019-02-28T01:00:33.292Z,21.87
2019-02-28T01:02:59.662Z,23.63
2019-02-28T01:05:25.838Z,22.77
2019-02-28T01:07:51.967Z,23.67
2019-02-28T01:10:18.228Z,22.10
2019-02-28T01:12:44.362Z,22.57
2019-02-28T01:15:15.773Z,23.70
2019-02-28T01:17:41.914Z,23.10
2019-02-28T01:20:08.456Z,24.97
2019-02-28T01:22:34.593Z,24.23
2019-02-28T01:25:00.733Z,25.00
2019-02-28T01:27:26.861Z,24.30
2019-02-28T01:29:53.014Z,24.13
2019-02-28T01:32:19.370Z,24.37
2019-02-28T01:34:45.528Z,25.13
2019-02-28T01:37:11.670Z,24.33
2019-02-28T01:39:37.802Z,24.73
2019-02-28T01:42:03.947Z,23.77
2019-02-28T01:44:30.085Z,25.27
2019-02-28T01:46:56.223Z,24.50
2019-02-28T01:49:26.032Z,25.67
2019-02-28T01:51:50.403Z,25.60
2019-02-28T01:54:16.542Z,26.67
2019-02-28T01:56:42.682Z,26.40
2019-02-28T01:59:08.817Z,25.33
2019-02-28T02:01:34.966Z,24.67
2019-02-28T02:04:01.094Z,26.37
2019-02-28T02:06:27.238Z,27.20
2019-02-28T02:08:53.376Z,25.37
2019-02-28T02:11:19.762Z,25.70
2019-02-28T02:13:45.911Z,27.43
2019-02-28T02:16:12.080Z,27.93
2019-02-28T02:18:40.206Z,25.40
2019-02-28T02:21:06.466Z,27.77
2019-02-28T02:23:32.603Z,28.40
2019-02-28T02:25:58.747Z,28.63
2019-02-28T02:28:27.069Z,28.73
2019-02-28T02:30:53.178Z,28.00
2019-02-28T02:33:19.308Z,28.70
2019-02-28T02:35:45.487Z,27.93
2019-02-28T02:38:11.621Z,28.43
2019-02-28T02:40:38.758Z,28.87
2019-02-28T02:43:04.915Z,30.03
2019-02-28T02:45:31.074Z,27.07
2019-02-28T02:47:57.220Z,27.57
2019-02-28T02:50:23.378Z,28.20
2019-02-28T02:52:49.539Z,28.63
2019-02-28T02:55:15.946Z,27.53
2019-02-28T02:57:42.237Z,28.40
2019-02-28T03:00:13.810Z,27.47
2019-02-28T03:02:40.692Z,28.07
2019-02-28T03:05:07.463Z,29.47
2019-02-28T03:07:33.726Z,29.30
2019-02-28T03:09:59.873Z,29.07
2019-02-28T03:12:26.046Z,29.80
2019-02-28T03:14:52.297Z,28.50
2019-02-28T03:17:18.431Z,29.90
2019-02-28T03:19:44.657Z,28.70
2019-02-28T03:22:11.902Z,28.07
2019-02-28T03:24:38.053Z,29.43
2019-02-28T03:27:04.308Z,29.33
2019-02-28T03:29:30.474Z,28.67
2019-02-28T03:31:59.388Z,29.00
2019-02-28T03:34:24.682Z,28.23
2019-02-28T03:36:55.739Z,31.20
2019-02-28T03:39:24.133Z,29.07
2019-02-28T03:41:49.027Z,28.47
2019-02-28T03:44:20.073Z,30.70
2019-02-28T03:46:46.934Z,31.03
2019-02-28T03:49:12.645Z,30.80
2019-02-28T03:51:38.840Z,29.80
2019-02-28T03:54:04.995Z,30.73
2019-02-28T03:56:31.181Z,30.90
2019-02-28T03:58:57.347Z,30.40
2019-02-28T04:01:23.496Z,30.07
2019-02-28T04:03:49.747Z,30.73
2019-02-28T04:06:15.904Z,30.10
2019-02-28T04:08:42.072Z,32.60
2019-02-28T04:11:08.240Z,30.77
2019-02-28T04:13:34.457Z,30.10
2019-02-28T04:16:08.290Z,32.43
2019-02-28T04:18:28.651Z,29.30
2019-02-28T04:20:54.784Z,32.20
2019-02-28T04:23:20.915Z,31.10
2019-02-28T04:25:47.087Z,34.43
2019-02-28T04:28:17.092Z,31.47
2019-02-28T04:30:43.731Z,32.83
2019-02-28T04:33:29.256Z,31.67
2019-02-28T04:35:56.873Z,32.30
2019-02-28T04:38:23.451Z,33.17
2019-02-28T04:40:49.639Z,31.47
2019-02-28T04:43:15.787Z,31.67
2019-02-28T04:45:41.968Z,30.07
2019-02-28T04:48:08.135Z,32.77
2019-02-28T04:50:34.282Z,33.10
2019-02-28T04:53:00.463Z,33.47
2019-02-28T04:55:26.611Z,34.37
2019-02-28T04:57:52.766Z,32.93
2019-02-28T05:00:18.900Z,33.83
2019-02-28T05:02:45.325Z,34.70
2019-02-28T05:05:13.413Z,33.67
2019-02-28T05:07:39.930Z,34.43
2019-02-28T05:10:07.764Z,35.57
2019-02-28T05:12:36.184Z,34.60
2019-02-28T05:15:05.013Z,35.43
2019-02-28T05:17:31.447Z,36.37
2019-02-28T05:19:57.664Z,36.63
2019-02-28T05:22:24.448Z,36.87
2019-02-28T05:24:51.879Z,36.53
2019-02-28T05:27:18.287Z,38.10
2019-02-28T05:29:44.842Z,37.87
2019-02-28T05:32:11.065Z,35.43
2019-02-28T05:34:37.472Z,36.40
2019-02-28T05:37:03.616Z,36.67
2019-02-28T05:39:31.001Z,34.33
2019-02-28T05:41:57.844Z,37.50
2019-02-28T05:44:24.247Z,36.27
2019-02-28T05:46:50.388Z,38.90
2019-02-28T05:49:16.577Z,37.00
2019-02-28T05:51:42.702Z,36.70
2019-02-28T05:54:08.890Z,37.33
2019-02-28T05:56:35.272Z,39.60
2019-02-28T05:59:01.502Z,40.37
2019-02-28T06:01:27.661Z,39.87
2019-02-28T06:03:53.853Z,38.53
2019-02-28T06:06:20.902Z,39.53
2019-02-28T06:08:47.190Z,40.47
2019-02-28T06:11:15.292Z,39.23
2019-02-28T06:13:41.625Z,40.50
2019-02-28T06:16:11.305Z,41.90
2019-02-28T06:18:35.848Z,41.97
2019-02-28T06:21:02.030Z,43.43
2019-02-28T06:23:28.183Z,42.33
2019-02-28T06:25:55.781Z,41.80
2019-02-28T06:28:22.635Z,42.30
2019-02-28T06:30:48.808Z,41.53
2019-02-28T06:33:14.952Z,54.88
2019-02-28T06:35:41.349Z,43.90
2019-02-28T06:38:07.494Z,41.77
2019-02-28T06:40:34.886Z,40.97
2019-02-28T06:43:01.056Z,42.13
2019-02-28T06:45:27.210Z,43.63
2019-02-28T06:47:53.396Z,44.63
2019-02-28T06:50:19.540Z,43.40
2019-02-28T06:52:45.699Z,44.87
2019-02-28T06:55:17.613Z,44.77
2019-02-28T06:57:44.040Z,42.93
2019-02-28T07:00:13.420Z,44.97
2019-02-28T07:02:40.366Z,46.47
2019-02-28T07:05:06.620Z,45.80
2019-02-28T07:07:32.946Z,45.63
2019-02-28T07:09:59.094Z,46.57
2019-02-28T07:12:29.167Z,47.00
2019-02-28T07:14:53.532Z,45.57
2019-02-28T07:17:19.686Z,44.80
2019-02-28T07:19:45.848Z,45.57
2019-02-28T07:22:12.035Z,46.23
2019-02-28T07:24:38.272Z,44.90
2019-02-28T07:27:04.540Z,45.00
2019-02-28T07:29:32.130Z,45.20
2019-02-28T07:32:01.231Z,45.63
2019-02-28T07:34:26.706Z,45.50
2019-02-28T07:36:52.860Z,45.87
2019-02-28T07:39:19.019Z,45.20
2019-02-28T07:41:45.419Z,46.37
2019-02-28T07:44:11.815Z,42.83
2019-02-28T07:46:38.512Z,42.10
2019-02-28T07:49:06.264Z,43.70
2019-02-28T07:51:32.403Z,43.17
2019-02-28T07:53:58.547Z,43.00
2019-02-28T07:56:24.944Z,43.40
2019-02-28T07:58:51.103Z,44.17
2019-02-28T08:01:18.416Z,44.57
2019-02-28T08:03:44.957Z,43.77
2019-02-28T08:06:11.202Z,41.83
2019-02-28T08:08:37.379Z,42.97
2019-02-28T08:11:03.930Z,42.40
2019-02-28T08:13:30.292Z,43.70
2019-02-28T08:16:00.205Z,42.00
2019-02-28T08:18:24.702Z,41.87
2019-02-28T08:20:51.107Z,42.70
2019-02-28T08:23:18.252Z,41.47
2019-02-28T08:25:44.399Z,41.37
2019-02-28T08:28:10.555Z,43.77
2019-02-28T08:30:36.695Z,42.77
2019-02-28T08:33:03.358Z,41.07
2019-02-28T08:35:33.952Z,42.27
2019-02-28T08:37:57.571Z,41.47
2019-02-28T08:40:26.797Z,42.33
2019-02-28T08:42:53.453Z,43.53
2019-02-28T08:45:19.719Z,42.37
2019-02-28T08:47:46.109Z,43.07
2019-02-28T08:50:19.061Z,41.00
2019-02-28T08:52:43.530Z,40.80
2019-02-28T08:55:11.975Z,40.20
2019-02-28T08:57:38.147Z,38.40
2019-02-28T09:00:18.329Z,39.13
2019-02-28T09:02:52.456Z,43.90
2019-02-28T09:05:15.847Z,42.43
2019-02-28T09:07:42.898Z,39.93
2019-02-28T09:10:12.759Z,41.43
2019-02-28T09:12:38.950Z,40.80
2019-02-28T09:15:07.709Z,38.43
2019-02-28T09:17:33.849Z,40.83
2019-02-28T09:20:00.092Z,40.60
2019-02-28T09:22:27.521Z,42.07
2019-02-28T09:24:54.269Z,40.90
2019-02-28T09:27:20.419Z,41.73
2019-02-28T09:29:46.571Z,41.40
2019-02-28T09:32:13.539Z,46.77
2019-02-28T09:34:41.303Z,42.77
2019-02-28T09:37:07.715Z,39.57
2019-02-28T09:39:35.213Z,41.93
2019-02-28T09:42:01.383Z,41.43
2019-02-28T09:44:30.726Z,41.40
2019-02-28T09:46:55.820Z,40.73
2019-02-28T09:49:21.976Z,40.00
2019-02-28T09:51:48.130Z,40.57
2019-02-28T09:54:14.270Z,38.20
2019-02-28T09:56:41.205Z,41.67
2019-02-28T09:59:08.565Z,41.40
2019-02-28T10:01:34.728Z,39.03
2019-02-28T10:04:00.854Z,41.30
2019-02-28T10:06:27.282Z,38.33
2019-02-28T10:08:53.431Z,39.97
2019-02-28T10:11:21.693Z,39.23
2019-02-28T10:13:49.574Z,41.43
2019-02-28T10:16:16.746Z,38.70
2019-02-28T10:18:44.002Z,40.17
2019-02-28T10:21:10.160Z,40.47
2019-02-28T10:23:36.541Z,38.10
2019-02-28T10:26:03.248Z,37.57
2019-02-28T10:28:29.406Z,36.73
2019-02-28T10:30:55.556Z,37.83
2019-02-28T10:35:55.036Z,38.17
2019-02-28T10:38:21.206Z,38.63
2019-02-28T10:40:49.310Z,39.13
2019-02-28T10:43:16.445Z,38.33
2019-02-28T10:45:42.958Z,37.83
2019-02-28T10:48:09.122Z,39.70
2019-02-28T10:50:37.355Z,39.43
2019-02-28T10:53:05.511Z,39.27
2019-02-28T10:55:31.854Z,36.97
2019-02-28T10:57:58.218Z,36.83
2019-02-28T11:00:32.236Z,35.67
2019-02-28T11:02:58.439Z,38.20
2019-02-28T11:05:29.451Z,36.27
2019-02-28T11:07:55.721Z,36.17
2019-02-28T11:10:39.255Z,37.47
2019-02-28T11:13:11.090Z,36.70
2019-02-28T11:15:37.331Z,39.73
2019-02-28T11:18:08.587Z,39.27
2019-02-28T11:20:33.261Z,40.90
2019-02-28T11:22:59.871Z,40.13
2019-02-28T11:25:27.210Z,42.10
2019-02-28T11:27:54.735Z,40.40
2019-02-28T11:30:23.615Z,41.87
2019-02-28T11:32:49.806Z,43.63
2019-02-28T11:35:15.946Z,43.83
2019-02-28T11:37:42.335Z,43.97
2019-02-28T11:40:11.865Z,41.77
2019-02-28T11:42:38.045Z,42.83
2019-02-28T11:45:18.616Z,45.10
2019-02-28T11:47:48.006Z,43.00
2019-02-28T11:50:14.276Z,45.77
2019-02-28T11:52:40.422Z,44.10
2019-02-28T11:55:11.434Z,44.30
2019-02-28T11:57:41.220Z,47.40
2019-02-28T12:00:15.763Z,48.33
2019-02-28T12:02:42.021Z,47.07
2019-02-28T12:05:08.399Z,48.70
2019-02-28T12:07:35.018Z,48.77
2019-02-28T12:10:03.320Z,51.57
2019-02-28T12:12:29.575Z,50.23
2019-02-28T12:14:55.740Z,50.13
2019-02-28T12:17:21.888Z,51.80
2019-02-28T12:19:50.638Z,49.60
2019-02-28T12:22:16.166Z,51.97
2019-02-28T12:24:42.315Z,52.27
2019-02-28T12:27:08.715Z,53.10
2019-02-28T12:29:34.862Z,53.23
2019-02-28T12:32:01.255Z,52.40
2019-02-28T12:34:28.758Z,52.60
2019-02-28T12:36:55.708Z,56.43
2019-02-28T12:39:23.631Z,55.83
2019-02-28T12:41:49.942Z,59.73
2019-02-28T12:44:16.199Z,60.23
2019-02-28T12:46:43.437Z,56.90
2019-02-28T12:49:09.967Z,54.63
2019-02-28T12:51:36.443Z,53.90
2019-02-28T12:54:04.194Z,52.60
2019-02-28T12:56:30.367Z,52.00
2019-02-28T12:58:56.747Z,52.70
2019-02-28T13:01:23.033Z,52.80
2019-02-28T13:03:54.594Z,49.10
2019-02-28T13:06:23.474Z,48.27
2019-02-28T13:08:45.303Z,46.07
2019-02-28T13:11:11.466Z,48.17
2019-02-28T13:13:37.946Z,43.37
2019-02-28T13:16:04.214Z,40.73
2019-02-28T13:18:30.641Z,39.97
2019-02-28T13:20:56.893Z,39.50
2019-02-28T13:23:23.033Z,38.73
2019-02-28T13:25:49.195Z,40.30
2019-02-28T13:28:18.115Z,43.57
2019-02-28T13:30:49.148Z,46.70
2019-02-28T13:33:14.997Z,39.60
2019-02-28T13:35:44.684Z,43.83
2019-02-28T13:38:08.339Z,43.13
2019-02-28T13:40:34.597Z,44.90
2019-02-28T13:43:01.851Z,44.80
2019-02-28T13:45:29.092Z,47.60
2019-02-28T13:47:55.334Z,47.37
2019-02-28T13:50:27.091Z,50.07
2019-02-28T13:52:53.693Z,50.00
2019-02-28T13:55:20.216Z,56.75
2019-02-28T13:57:47.059Z,52.47
2019-02-28T14:00:19.130Z,52.60
2019-02-28T14:02:45.503Z,53.63
2019-02-28T14:05:11.668Z,52.83
2019-02-28T14:07:37.807Z,52.77
2019-02-28T14:10:08.627Z,51.70
2019-02-28T14:12:36.486Z,50.23
2019-02-28T14:15:05.156Z,47.13
2019-02-28T14:17:35.496Z,47.40
2019-02-28T14:20:01.971Z,47.87
2019-02-28T14:22:28.587Z,44.73
2019-02-28T14:24:55.094Z,45.27
2019-02-28T14:27:21.662Z,45.23
2019-02-28T14:29:49.515Z,47.93
2019-02-28T14:32:15.680Z,45.17
2019-02-28T14:34:41.935Z,46.07
2019-02-28T14:37:08.075Z,45.73
2019-02-28T14:39:34.212Z,47.30
2019-02-28T14:42:03.126Z,47.37
2019-02-28T14:44:31.569Z,45.90
2019-02-28T14:46:56.487Z,45.30
2019-02-28T14:49:22.643Z,44.13
2019-02-28T14:51:48.789Z,44.63
2019-02-28T14:54:14.965Z,42.67
2019-02-28T14:56:42.226Z,40.30
2019-02-28T14:59:09.191Z,41.53
2019-02-28T15:01:35.374Z,40.23
2019-02-28T15:04:02.755Z,38.63
2019-02-28T15:06:29.606Z,39.30
2019-02-28T15:08:56.936Z,36.00
2019-02-28T15:11:23.085Z,35.90
2019-02-28T15:13:49.486Z,34.87
2019-02-28T15:16:15.628Z,34.27
2019-02-28T15:18:44.357Z,32.50
2019-02-28T15:21:10.202Z,32.70
2019-02-28T15:23:36.364Z,30.50
2019-02-28T15:26:02.518Z,29.03
2019-02-28T15:28:28.667Z,26.77
2019-02-28T15:30:54.806Z,27.27
2019-02-28T15:33:20.969Z,26.43
2019-02-28T15:35:49.806Z,25.30
2019-02-28T15:38:15.157Z,24.90
2019-02-28T15:40:42.986Z,25.57
2019-02-28T15:43:09.268Z,24.07
2019-02-28T15:45:36.133Z,23.53
2019-02-28T15:48:03.341Z,21.70
2019-02-28T15:50:29.479Z,21.63
2019-02-28T15:52:56.888Z,20.63
2019-02-28T15:55:23.231Z,19.23
2019-02-28T15:57:49.388Z,19.17
2019-02-28T16:00:22.121Z,18.73
2019-02-28T16:02:48.695Z,18.47
2019-02-28T16:05:15.067Z,17.90
2019-02-28T16:07:41.193Z,16.83
2019-02-28T16:10:12.777Z,17.17
2019-02-28T16:12:38.970Z,18.87
2019-02-28T16:15:08.749Z,17.97
2019-02-28T16:17:36.822Z,18.43
2019-02-28T16:20:07.868Z,17.67
2019-02-28T16:22:34.088Z,18.60
2019-02-28T16:25:00.365Z,18.20
2019-02-28T16:27:29.576Z,17.53
2019-02-28T16:29:55.729Z,18.10
2019-02-28T16:32:22.837Z,17.07
2019-02-28T16:34:48.983Z,17.70
2019-02-28T16:37:15.130Z,16.27
2019-02-28T16:39:41.298Z,16.27
2019-02-28T16:42:08.291Z,16.97
2019-02-28T16:44:34.608Z,16.90
2019-02-28T16:47:00.783Z,15.47
2019-02-28T16:49:26.934Z,16.37
2019-02-28T16:51:53.066Z,14.77
2019-02-28T16:54:19.308Z,13.83
2019-02-28T16:56:47.499Z,14.60
2019-02-28T16:59:13.868Z,12.90
2019-02-28T17:01:40.242Z,12.27
2019-02-28T17:04:06.622Z,12.57
2019-02-28T17:06:35.602Z,11.50
2019-02-28T17:09:02.731Z,11.20
2019-02-28T17:11:30.784Z,10.07
2019-02-28T17:14:01.617Z,9.93
2019-02-28T17:16:29.850Z,9.13
2019-02-28T17:18:56.713Z,8.80
2019-02-28T17:21:23.554Z,8.10
2019-02-28T17:23:50.944Z,8.50
2019-02-28T17:26:18.982Z,7.90
2019-02-28T17:28:49.736Z,7.17
2019-02-28T17:31:17.517Z,7.17
2019-02-28T17:33:46.793Z,7.07
2019-02-28T17:36:12.555Z,6.87
2019-02-28T17:38:38.847Z,6.40
2019-02-28T17:41:05.233Z,6.20
2019-02-28T17:43:35.064Z,6.33
2019-02-28T17:46:01.206Z,7.00
2019-02-28T17:48:40.022Z,6.67
2019-02-28T17:51:10.039Z,6.87
2019-02-28T17:53:49.986Z,6.63
2019-02-28T17:56:44.558Z,6.60
2019-02-28T17:59:22.619Z,7.93
2019-02-28T18:02:04.968Z,7.33
2019-02-28T18:04:56.287Z,7.20
2019-02-28T18:07:36.492Z,7.70
2019-02-28T18:10:24.377Z,7.97
2019-02-28T18:12:57.873Z,8.10
2019-02-28T18:15:42.138Z,9.13
2019-02-28T18:18:45.360Z,8.40
2019-02-28T18:21:37.570Z,9.53
2019-02-28T18:24:17.093Z,10.37
2019-02-28T18:26:49.942Z,10.23
2019-02-28T18:29:41.910Z,9.80
2019-02-28T18:32:08.082Z,10.70
2019-02-28T18:34:35.059Z,10.00
2019-02-28T18:37:01.204Z,9.70
2019-02-28T18:39:27.603Z,9.73
2019-02-28T18:41:53.759Z,9.20
2019-02-28T18:44:20.143Z,9.27
2019-02-28T18:46:46.283Z,8.83
2019-02-28T18:49:12.428Z,8.57
2019-02-28T18:51:38.563Z,8.07
2019-02-28T18:54:04.738Z,8.10
2019-02-28T18:56:30.973Z,8.67
2019-02-28T18:58:57.406Z,7.87
2019-02-28T19:01:23.563Z,9.10
2019-02-28T19:03:49.970Z,7.73
2019-02-28T19:06:16.146Z,7.20
2019-02-28T19:08:42.630Z,7.33
2019-02-28T19:11:08.895Z,7.43
2019-02-28T19:13:35.150Z,6.20
2019-02-28T19:16:01.298Z,5.20
2019-02-28T19:18:28.674Z,5.37
2019-02-28T19:20:55.738Z,5.40
2019-02-28T19:23:22.057Z,5.10
2019-02-28T19:25:48.220Z,5.33
2019-02-28T19:28:14.362Z,6.13
2019-02-28T19:30:40.507Z,6.37
2019-02-28T19:33:06.781Z,7.20
2019-02-28T19:35:33.154Z,6.90
2019-02-28T19:37:59.311Z,6.60
2019-02-28T19:40:25.463Z,7.17
2019-02-28T19:42:51.598Z,6.73
2019-02-28T19:45:24.652Z,7.70
2019-02-28T19:47:50.804Z,8.20
2019-02-28T19:50:16.955Z,8.80
2019-02-28T19:52:43.100Z,8.73
2019-02-28T19:55:13.463Z,8.50
2019-02-28T19:57:40.611Z,6.90
2019-02-28T20:00:18.099Z,7.97
2019-02-28T20:02:44.250Z,7.43
2019-02-28T20:05:11.039Z,7.83
2019-02-28T20:07:37.209Z,7.30
2019-02-28T20:10:07.539Z,7.63
2019-02-28T20:12:34.096Z,8.00
2019-02-28T20:15:00.290Z,7.37
2019-02-28T20:17:26.498Z,7.97
2019-02-28T20:19:52.643Z,8.03
2019-02-28T20:22:18.791Z,7.90
2019-02-28T20:24:44.927Z,7.63
2019-02-28T20:27:11.071Z,7.60
2019-02-28T20:29:37.329Z,7.23
2019-02-28T20:32:03.578Z,7.90
2019-02-28T20:34:29.827Z,8.43
2019-02-28T20:36:57.980Z,9.00
2019-02-28T20:39:24.043Z,8.50
2019-02-28T20:41:50.183Z,8.40
2019-02-28T20:44:16.341Z,9.37
2019-02-28T20:46:42.715Z,10.23
2019-02-28T20:49:08.873Z,10.10
2019-02-28T20:51:35.007Z,11.00
2019-02-28T20:54:01.157Z,10.93
2019-02-28T20:56:27.423Z,11.30
2019-02-28T20:58:53.586Z,11.27
2019-02-28T21:01:19.981Z,11.03
2019-02-28T21:03:46.122Z,11.47
2019-02-28T21:06:12.248Z,10.27
2019-02-28T21:08:38.410Z,11.20
2019-02-28T21:11:04.582Z,10.63
2019-02-28T21:13:31.117Z,11.47
2019-02-28T21:15:57.298Z,10.30
2019-02-28T21:18:23.675Z,11.93
2019-02-28T21:20:49.910Z,10.97
2019-02-28T21:23:16.288Z,12.03
2019-02-28T21:25:42.552Z,13.13
2019-02-28T21:28:08.971Z,12.63
2019-02-28T21:30:35.235Z,12.70
2019-02-28T21:33:01.420Z,10.87
2019-02-28T21:35:28.256Z,12.30
2019-02-28T21:37:54.408Z,11.87
2019-02-28T21:40:21.627Z,13.00
2019-02-28T21:42:47.971Z,13.73
2019-02-28T21:45:16.033Z,12.17
2019-02-28T21:47:42.502Z,12.50
2019-02-28T21:50:13.862Z,13.00
2019-02-28T21:52:40.460Z,13.03
2019-02-28T21:55:09.235Z,13.00
2019-02-28T21:57:35.499Z,14.17
2019-02-28T22:00:03.143Z,13.93
2019-02-28T22:02:31.182Z,13.33
2019-02-28T22:04:57.478Z,12.83
2019-02-28T22:07:23.847Z,13.30
2019-02-28T22:09:50.015Z,12.97
2019-02-28T22:12:16.146Z,13.10
2019-02-28T22:14:42.292Z,13.20
2019-02-28T22:17:08.672Z,13.77
2019-02-28T22:19:34.863Z,13.87
2019-02-28T22:22:01.390Z,15.40
2019-02-28T22:24:28.652Z,14.37
2019-02-28T22:26:54.796Z,14.17
2019-02-28T22:29:20.965Z,14.90
2019-02-28T22:31:52.460Z,13.50
2019-02-28T22:34:26.689Z,14.53
2019-02-28T22:36:53.083Z,14.63
2019-02-28T22:39:19.290Z,15.03
2019-02-28T22:41:45.659Z,13.30
2019-02-28T22:44:11.802Z,13.60
2019-02-28T22:46:37.957Z,13.30
2019-02-28T22:49:04.105Z,14.77
2019-02-28T22:51:30.610Z,14.30
2019-02-28T22:53:56.768Z,14.43
2019-02-28T22:56:22.922Z,14.13
2019-02-28T22:58:49.072Z,13.40
2019-02-28T23:01:19.067Z,14.70
2019-02-28T23:03:45.355Z,13.77
2019-02-28T23:06:11.530Z,13.10
2019-02-28T23:08:37.899Z,13.83
2019-02-28T23:11:04.265Z,13.70
2019-02-28T23:13:30.400Z,13.73
2019-02-28T23:15:56.928Z,14.33
2019-02-28T23:18:23.090Z,13.43
2019-02-28T23:20:49.249Z,13.23
2019-02-28T23:23:15.617Z,13.13
2019-02-28T23:25:41.992Z,12.53
2019-02-28T23:28:12.959Z,13.30
2019-02-28T23:31:07.147Z,11.87
2019-02-28T23:33:33.309Z,12.67
2019-02-28T23:35:59.445Z,12.20
2019-02-28T23:38:25.731Z,11.03
2019-02-28T23:40:55.776Z,12.07
2019-02-28T23:43:21.909Z,11.37
2019-02-28T23:45:48.080Z,11.70
2019-02-28T23:48:14.237Z,12.53
2019-02-28T23:50:40.363Z,10.63
2019-02-28T23:53:07.547Z,11.73
2019-02-28T23:55:33.690Z,11.50
2019-02-28T23:57:59.858Z,11.27
